^^
Your Local Weather - Clay, NY Station Historical Data
Daily Summary for May 31, 2017 Units:  English    Metric   Both
« Previous Day
Next Day »
Daily Weekly Monthly Yearly Custom
  High: Low: Average:
Temperature: 75.4 °F 58.0 °F 65.4 °F
Dew Point: 58.6 °F 45.4 °F 52.7 °F
Humidity: 92% 38% 66%
Wind Speed: 7.0mph 0.0mph 2.6mph
Wind Gust: 13.0mph - -
Wind- - SSW
Pressure: 29.93 in 29.81 in -
Precipitation: 0.26 in    
Historical Graphs
 
 
Tabular Data for May 31, 2017
Time Temperature Dew Point Pressure Wind Wind Speed Wind Gust Humidity Rainfall Rate (Hourly) solar
00:02 60.8 °F 55.6 °F 29.92 in SSE 1.0 mph 5.0 mph 83% 0.00 in 0 W/m2
00:08 60.8 °F 55.6 °F 29.92 in SW 2.0 mph 5.0 mph 83% 0.00 in 0 W/m2
00:14 60.9 °F 55.7 °F 29.92 in SSE 4.0 mph 5.0 mph 83% 0.00 in 0 W/m2
00:20 61.0 °F 55.8 °F 29.92 in SE 4.0 mph 6.0 mph 83% 0.00 in 0 W/m2
00:26 61.0 °F 56.1 °F 29.91 in SE 4.0 mph 7.0 mph 84% 0.00 in 0 W/m2
00:32 60.9 °F 56.0 °F 29.91 in South 3.0 mph 5.0 mph 84% 0.00 in 0 W/m2
00:38 60.9 °F 56.0 °F 29.91 in South 3.0 mph 5.0 mph 84% 0.00 in 0 W/m2
00:44 60.9 °F 56.0 °F 29.91 in SSE 3.0 mph 5.0 mph 84% 0.00 in 0 W/m2
00:50 60.9 °F 56.0 °F 29.92 in WSW 2.0 mph 2.0 mph 84% 0.00 in 0 W/m2
00:56 60.9 °F 56.0 °F 29.93 in WSW 2.0 mph 2.0 mph 84% 0.00 in 0 W/m2
01:03 60.7 °F 56.2 °F 29.92 in SE 2.0 mph 3.0 mph 85% 0.17 in 0 W/m2
01:08 60.1 °F 56.2 °F 29.92 in South 3.0 mph 4.0 mph 87% 0.07 in 0 W/m2
01:14 60.1 °F 56.2 °F 29.92 in South 4.0 mph 4.0 mph 87% 0.04 in 0 W/m2
01:20 60.0 °F 56.4 °F 29.91 in SSE 5.0 mph 5.0 mph 88% 0.00 in 0 W/m2
01:26 59.7 °F 56.1 °F 29.91 in SSE 3.0 mph 5.0 mph 88% 0.00 in 0 W/m2
01:32 59.4 °F 55.8 °F 29.90 in South 2.0 mph 3.0 mph 88% 0.00 in 0 W/m2
01:38 59.4 °F 56.2 °F 29.91 in SW 3.0 mph 5.0 mph 89% 0.00 in 0 W/m2
01:44 59.4 °F 56.2 °F 29.91 in South 3.0 mph 4.0 mph 89% 0.00 in 0 W/m2
01:50 59.3 °F 56.1 °F 29.90 in SE 2.0 mph 2.0 mph 89% 0.00 in 0 W/m2
01:56 58.9 °F 55.7 °F 29.90 in SSE 1.0 mph 4.0 mph 89% 0.00 in 0 W/m2
02:02 58.9 °F 55.7 °F 29.90 in SSE 3.0 mph 5.0 mph 89% 0.00 in 0 W/m2
02:08 59.0 °F 55.8 °F 29.90 in South 3.0 mph 6.0 mph 89% 0.00 in 0 W/m2
02:14 59.0 °F 55.8 °F 29.90 in SE 3.0 mph 3.0 mph 89% 0.00 in 0 W/m2
02:20 59.0 °F 55.8 °F 29.90 in South 1.0 mph 1.0 mph 89% 0.00 in 0 W/m2
02:26 58.9 °F 55.7 °F 29.91 in South 1.0 mph 1.0 mph 89% 0.00 in 0 W/m2
02:32 58.9 °F 55.7 °F 29.91 in Calm   1.0 mph 89% 0.00 in 0 W/m2
02:38 58.9 °F 55.7 °F 29.91 in South 1.0 mph 2.0 mph 89% 0.00 in 0 W/m2
02:44 58.9 °F 55.7 °F 29.90 in SE 2.0 mph 2.0 mph 89% 0.00 in 0 W/m2
02:50 58.9 °F 55.7 °F 29.91 in South 2.0 mph 2.0 mph 89% 0.00 in 0 W/m2
02:56 59.0 °F 55.8 °F 29.90 in South 1.0 mph 2.0 mph 89% 0.00 in 0 W/m2
03:02 58.9 °F 55.7 °F 29.90 in South 2.0 mph 3.0 mph 89% 0.00 in 0 W/m2
03:08 58.9 °F 56.0 °F 29.90 in SSE 2.0 mph 4.0 mph 90% 0.26 in 0 W/m2
03:14 58.8 °F 55.9 °F 29.89 in South 3.0 mph 4.0 mph 90% 0.14 in 0 W/m2
03:20 58.9 °F 56.0 °F 29.91 in SW 3.0 mph 3.0 mph 90% 0.07 in 0 W/m2
03:26 58.9 °F 56.0 °F 29.92 in WSW 3.0 mph 5.0 mph 90% 0.09 in 0 W/m2
03:32 58.9 °F 56.0 °F 29.92 in SSW 3.0 mph 4.0 mph 90% 2.05 in 0 W/m2
03:38 58.6 °F 55.4 °F 29.90 in SSE 4.0 mph 6.0 mph 89% 0.12 in 0 W/m2
03:44 58.3 °F 55.1 °F 29.91 in South 5.0 mph 7.0 mph 89% 0.06 in 0 W/m2
03:50 58.3 °F 55.4 °F 29.91 in South 4.0 mph 4.0 mph 90% 0.04 in 0 W/m2
03:56 58.1 °F 55.2 °F 29.90 in SSE 3.0 mph 4.0 mph 90% 0.00 in 0 W/m2
04:02 58.0 °F 55.1 °F 29.90 in South 2.0 mph 2.0 mph 90% 0.00 in 0 W/m2
04:08 58.1 °F 55.5 °F 29.91 in SW 1.0 mph 2.0 mph 91% 0.00 in 0 W/m2
04:14 58.2 °F 55.6 °F 29.90 in SSW 1.0 mph 4.0 mph 91% 0.00 in 0 W/m2
04:20 58.3 °F 55.7 °F 29.90 in South 1.0 mph 3.0 mph 91% 0.00 in 0 W/m2
04:26 58.5 °F 55.9 °F 29.90 in SSE 2.0 mph 4.0 mph 91% 0.00 in 0 W/m2
04:32 58.5 °F 55.9 °F 29.90 in SSE 2.0 mph 3.0 mph 91% 0.00 in 0 W/m2
04:38 58.6 °F 56.0 °F 29.90 in SW 3.0 mph 6.0 mph 91% 0.00 in 0 W/m2
04:44 58.6 °F 56.0 °F 29.90 in SW 2.0 mph 4.0 mph 91% 0.00 in 0 W/m2
04:50 58.5 °F 55.6 °F 29.90 in South 2.0 mph 4.0 mph 90% 0.00 in 0 W/m2
04:56 58.5 °F 55.6 °F 29.90 in SW 2.0 mph 4.0 mph 90% 0.00 in 0 W/m2
05:02 58.6 °F 55.4 °F 29.90 in SSW 2.0 mph 2.0 mph 89% 0.00 in 0 W/m2
05:08 58.5 °F 55.3 °F 29.90 in SSE 2.0 mph 3.0 mph 89% 0.00 in 0 W/m2
05:14 58.4 °F 55.2 °F 29.90 in South 2.0 mph 3.0 mph 89% 0.00 in 0 W/m2
05:20 58.2 °F 55.0 °F 29.90 in SSW 1.0 mph 1.0 mph 89% 0.00 in 0 W/m2
05:26 58.1 °F 54.9 °F 29.90 in SSW 1.0 mph 2.0 mph 89% 0.00 in 0 W/m2
05:32 58.1 °F 54.9 °F 29.90 in SSW 1.0 mph 2.0 mph 89% 0.00 in 0 W/m2
05:38 58.1 °F 54.9 °F 29.91 in SSW 1.0 mph 2.0 mph 89% 0.00 in 5 W/m2
05:44 58.2 °F 55.0 °F 29.91 in SW 1.0 mph 3.0 mph 89% 0.00 in 7 W/m2
05:50 58.3 °F 55.4 °F 29.91 in SW 1.0 mph 1.0 mph 90% 0.00 in 11 W/m2
05:56 58.4 °F 55.5 °F 29.91 in SW 1.0 mph 2.0 mph 90% 0.00 in 12 W/m2
06:02 58.4 °F 55.5 °F 29.92 in SW 1.0 mph 1.0 mph 90% 0.00 in 18 W/m2
06:08 58.4 °F 55.2 °F 29.92 in Calm   1.0 mph 89% 0.00 in 23 W/m2
06:14 58.4 °F 55.5 °F 29.92 in Calm   2.0 mph 90% 0.00 in 28 W/m2
06:20 58.5 °F 55.6 °F 29.92 in Calm   1.0 mph 90% 0.00 in 26 W/m2
06:26 58.5 °F 55.3 °F 29.92 in Calm   1.0 mph 89% 0.00 in 30 W/m2
06:32 58.5 °F 55.3 °F 29.92 in Calm     89% 0.00 in 30 W/m2
06:38 58.3 °F 55.1 °F 29.92 in Calm     89% 0.00 in 26 W/m2
06:44 58.2 °F 55.3 °F 29.92 in Calm     90% 0.00 in 35 W/m2
06:50 58.0 °F 55.1 °F 29.93 in Calm     90% 0.00 in 65 W/m2
06:56 58.1 °F 55.2 °F 29.93 in Calm     90% 0.00 in 58 W/m2
07:02 58.4 °F 55.8 °F 29.93 in Calm     91% 0.00 in 77 W/m2
07:04 58.4 °F 55.8 °F 29.93 in Calm     91% 0.00 in 47 W/m2
07:10 58.2 °F 55.6 °F 29.92 in Calm     91% 0.00 in 40 W/m2
07:16 58.5 °F 56.2 °F 29.93 in Calm     92% 0.00 in 229 W/m2
07:22 59.5 °F 57.2 °F 29.93 in Calm     92% 0.00 in 244 W/m2
07:28 60.6 °F 58.3 °F 29.93 in Calm     92% 0.00 in 264 W/m2
07:36 61.6 °F 58.6 °F 29.93 in Calm     90% 0.00 in 287 W/m2
07:42 61.9 °F 58.0 °F 29.93 in SW 1.0 mph 2.0 mph 87% 0.00 in 308 W/m2
07:48 62.3 °F 57.7 °F 29.93 in WSW 1.0 mph 3.0 mph 85% 0.00 in 327 W/m2
07:54 62.6 °F 57.4 °F 29.93 in SW 2.0 mph 3.0 mph 83% 0.00 in 350 W/m2
08:00 63.1 °F 57.5 °F 29.93 in South 2.0 mph 2.0 mph 82% 0.00 in 371 W/m2
08:06 63.4 °F 57.5 °F 29.92 in SSE 1.0 mph 3.0 mph 81% 0.00 in 390 W/m2
08:12 63.7 °F 57.8 °F 29.92 in WSW 1.0 mph 2.0 mph 81% 0.00 in 408 W/m2
08:18 64.1 °F 57.8 °F 29.92 in WSW 2.0 mph 5.0 mph 80% 0.00 in 425 W/m2
08:24 64.4 °F 57.7 °F 29.93 in WSW 2.0 mph 4.0 mph 79% 0.00 in 443 W/m2
08:30 64.8 °F 57.4 °F 29.93 in SSW 2.0 mph 2.0 mph 77% 0.00 in 462 W/m2
08:36 64.9 °F 56.8 °F 29.92 in SW 2.0 mph 3.0 mph 75% 0.00 in 483 W/m2
08:42 65.4 °F 57.3 °F 29.92 in SW 2.0 mph 3.0 mph 75% 0.00 in 506 W/m2
08:48 65.7 °F 56.8 °F 29.92 in SSW 3.0 mph 3.0 mph 73% 0.00 in 573 W/m2
08:50 65.7 °F 56.8 °F 29.92 in SW 3.0 mph 3.0 mph 73% 0.00 in 589 W/m2
08:56 66.2 °F 56.9 °F 29.92 in SSW 3.0 mph 4.0 mph 72% 0.00 in 552 W/m2
09:02 66.5 °F 56.8 °F 29.92 in SSE 3.0 mph 4.0 mph 71% 0.00 in 536 W/m2
09:08 66.5 °F 56.4 °F 29.92 in SW 3.0 mph 6.0 mph 70% 0.00 in 591 W/m2
09:14 67.0 °F 56.5 °F 29.92 in WSW 3.0 mph 6.0 mph 69% 0.00 in 612 W/m2
09:20 66.8 °F 55.9 °F 29.92 in SSW 4.0 mph 4.0 mph 68% 0.00 in 436 W/m2
09:26 66.9 °F 55.2 °F 29.92 in SW 4.0 mph 5.0 mph 66% 0.00 in 503 W/m2
09:32 67.2 °F 55.5 °F 29.92 in SSW 3.0 mph 6.0 mph 66% 0.00 in 615 W/m2
09:38 67.5 °F 54.5 °F 29.91 in SW 4.0 mph 6.0 mph 63% 0.00 in 457 W/m2
09:44 67.6 °F 54.6 °F 29.91 in SW 3.0 mph 6.0 mph 63% 0.00 in 679 W/m2
09:50 68.0 °F 53.6 °F 29.91 in SSW 3.0 mph 4.0 mph 60% 0.00 in 712 W/m2
09:56 68.5 °F 54.5 °F 29.91 in WSW 4.0 mph 5.0 mph 61% 0.00 in 756 W/m2
10:02 68.9 °F 54.0 °F 29.90 in WSW 5.0 mph 5.0 mph 59% 0.00 in 756 W/m2
10:08 69.3 °F 54.4 °F 29.90 in SW 4.0 mph 5.0 mph 59% 0.00 in 798 W/m2
10:14 69.7 °F 53.3 °F 29.90 in SSE 4.0 mph 6.0 mph 56% 0.00 in 802 W/m2
10:20 69.9 °F 53.5 °F 29.90 in WSW 5.0 mph 5.0 mph 56% 0.00 in 775 W/m2
10:26 70.1 °F 52.7 °F 29.90 in South 4.0 mph 6.0 mph 54% 0.00 in 788 W/m2
10:32 70.3 °F 53.9 °F 29.90 in SSW 4.0 mph 4.0 mph 56% 0.00 in 809 W/m2
10:38 70.2 °F 51.2 °F 29.90 in SSW 4.0 mph 7.0 mph 51% 0.00 in 863 W/m2
10:44 70.4 °F 51.4 °F 29.90 in SW 6.0 mph 7.0 mph 51% 0.00 in 844 W/m2
10:50 71.2 °F 51.1 °F 29.90 in West 4.0 mph 8.0 mph 49% 0.00 in 868 W/m2
10:56 71.7 °F 51.5 °F 29.89 in SW 3.0 mph 8.0 mph 49% 0.00 in 949 W/m2
11:02 71.7 °F 49.8 °F 29.89 in SSW 4.0 mph 6.0 mph 46% 0.00 in 984 W/m2
11:08 71.9 °F 51.1 °F 29.89 in West 4.0 mph 6.0 mph 48% 0.00 in 383 W/m2
11:14 70.8 °F 49.0 °F 29.89 in WSW 4.0 mph 9.0 mph 46% 0.00 in 466 W/m2
11:20 70.8 °F 50.1 °F 29.89 in SE 5.0 mph 7.0 mph 48% 0.00 in 462 W/m2
11:26 71.5 °F 49.0 °F 29.89 in South 4.0 mph 7.0 mph 45% 0.00 in 573 W/m2
11:32 71.3 °F 50.0 °F 29.89 in SSE 5.0 mph 6.0 mph 47% 0.00 in 1009 W/m2
11:38 72.1 °F 51.9 °F 29.89 in SW 4.0 mph 8.0 mph 49% 0.00 in 916 W/m2
11:44 72.1 °F 49.6 °F 29.89 in South 4.0 mph 4.0 mph 45% 0.00 in 921 W/m2
11:50 71.9 °F 48.2 °F 29.89 in SW 6.0 mph 9.0 mph 43% 0.00 in 946 W/m2
11:56 72.2 °F 48.5 °F 29.89 in SW 7.0 mph 10.0 mph 43% 0.00 in 1053 W/m2
12:02 71.6 °F 49.1 °F 29.88 in WSW 6.0 mph 6.0 mph 45% 0.00 in 330 W/m2
12:08 71.9 °F 51.7 °F 29.88 in SSW 3.0 mph 4.0 mph 49% 0.00 in 1187 W/m2
12:14 72.7 °F 50.1 °F 29.88 in WSW 3.0 mph 4.0 mph 45% 0.00 in 352 W/m2
12:20 72.6 °F 46.9 °F 29.88 in SW 3.0 mph 3.0 mph 40% 0.00 in 684 W/m2
12:26 72.9 °F 46.5 °F 29.87 in SSW 3.0 mph 3.0 mph 39% 0.00 in 1120 W/m2
12:32 73.4 °F 48.3 °F 29.87 in SSW 3.0 mph 5.0 mph 41% 0.00 in 977 W/m2
12:38 72.9 °F 45.8 °F 29.87 in WSW 5.0 mph 6.0 mph 38% 0.00 in 983 W/m2
12:44 72.6 °F 46.9 °F 29.87 in WSW 6.0 mph 6.0 mph 40% 0.00 in 1109 W/m2
12:50 71.8 °F 46.2 °F 29.87 in South 3.0 mph 3.0 mph 40% 0.00 in 169 W/m2
12:58 72.6 °F 46.9 °F 29.87 in West 5.0 mph 5.0 mph 40% 0.00 in 1078 W/m2
13:04 74.0 °F 48.8 °F 29.87 in SSW 4.0 mph 5.0 mph 41% 0.00 in 1150 W/m2
13:10 73.7 °F 51.6 °F 29.87 in WSW 2.0 mph 5.0 mph 46% 0.00 in 1178 W/m2
13:16 73.2 °F 48.7 °F 29.87 in NW 2.0 mph 7.0 mph 42% 0.00 in 316 W/m2
13:22 72.4 °F 48.6 °F 29.86 in West 3.0 mph 8.0 mph 43% 0.00 in 199 W/m2
13:28 72.4 °F 48.6 °F 29.86 in WSW 3.0 mph 8.0 mph 43% 0.00 in 172 W/m2
13:34 72.9 °F 48.5 °F 29.86 in WSW 3.0 mph 8.0 mph 42% 0.00 in 1044 W/m2
13:40 72.5 °F 48.7 °F 29.86 in WNW 5.0 mph 5.0 mph 43% 0.00 in 1086 W/m2
13:46 73.6 °F 49.1 °F 29.85 in West 5.0 mph 13.0 mph 42% 0.00 in 1076 W/m2
13:52 74.1 °F 48.9 °F 29.85 in West 4.0 mph 9.0 mph 41% 0.00 in 1078 W/m2
13:58 74.2 °F 54.4 °F 29.85 in West 4.0 mph 9.0 mph 50% 0.00 in 1004 W/m2
14:04 74.9 °F 51.5 °F 29.85 in SW 3.0 mph 5.0 mph 44% 0.00 in 1041 W/m2
14:10 74.5 °F 47.9 °F 29.84 in SW 3.0 mph 6.0 mph 39% 0.00 in 988 W/m2
14:16 75.1 °F 51.1 °F 29.84 in SW 3.0 mph 10.0 mph 43% 0.00 in 988 W/m2
14:22 74.8 °F 50.2 °F 29.84 in WSW 2.0 mph 3.0 mph 42% 0.00 in 979 W/m2
14:28 75.4 °F 52.0 °F 29.83 in WSW 2.0 mph 3.0 mph 44% 0.00 in 1018 W/m2
14:34 75.4 °F 52.0 °F 29.83 in NW 2.0 mph 6.0 mph 44% 0.00 in 962 W/m2
14:40 74.9 °F 47.6 °F 29.82 in SSE 3.0 mph 7.0 mph 38% 0.00 in 976 W/m2
14:46 74.1 °F 49.5 °F 29.82 in NNW 4.0 mph 7.0 mph 42% 0.00 in 185 W/m2
14:52 73.1 °F 49.9 °F 29.83 in SSW 3.0 mph 4.0 mph 44% 0.00 in 163 W/m2
14:58 72.5 °F 45.4 °F 29.83 in SW 3.0 mph 6.0 mph 38% 0.00 in 93 W/m2
15:04 72.2 °F 45.9 °F 29.83 in West 3.0 mph 5.0 mph 39% 0.00 in 100 W/m2
15:10 71.9 °F 46.9 °F 29.83 in WSW 3.0 mph 3.0 mph 41% 0.00 in 214 W/m2
15:16 71.8 °F 46.8 °F 29.84 in NNW 2.0 mph 4.0 mph 41% 0.00 in 176 W/m2
15:22 71.0 °F 48.6 °F 29.85 in WNW 4.0 mph 6.0 mph 45% 0.00 in 84 W/m2
15:28 65.8 °F 50.1 °F 29.87 in NW 5.0 mph 9.0 mph 57% 0.00 in 53 W/m2
15:34 62.4 °F 50.9 °F 29.89 in WSW 5.0 mph 6.0 mph 66% 0.00 in 35 W/m2
15:40 61.1 °F 51.6 °F 29.88 in WSW 3.0 mph 3.0 mph 71% 0.00 in 62 W/m2
15:46 60.0 °F 52.1 °F 29.84 in SSE 3.0 mph 4.0 mph 75% 0.00 in 220 W/m2
15:52 60.1 °F 53.9 °F 29.84 in SSE 1.0 mph 2.0 mph 80% 0.00 in 315 W/m2
15:58 61.8 °F 56.2 °F 29.84 in Calm   2.0 mph 82% 0.00 in 545 W/m2
16:04 62.8 °F 54.4 °F 29.84 in SSE 1.0 mph 2.0 mph 74% 0.00 in 543 W/m2
16:10 64.7 °F 54.7 °F 29.84 in South 1.0 mph 2.0 mph 70% 0.00 in 710 W/m2
16:16 65.0 °F 55.0 °F 29.84 in South 2.0 mph 4.0 mph 70% 0.00 in 710 W/m2
16:22 66.3 °F 56.6 °F 29.84 in SSE 2.0 mph 2.0 mph 71% 0.00 in 696 W/m2
16:28 67.2 °F 57.5 °F 29.83 in SW 2.0 mph 5.0 mph 71% 0.00 in 524 W/m2
16:34 68.1 °F 55.5 °F 29.83 in WSW 3.0 mph 4.0 mph 64% 0.00 in 661 W/m2
16:40 68.6 °F 55.1 °F 29.82 in South 4.0 mph 4.0 mph 62% 0.00 in 645 W/m2
16:46 69.2 °F 53.3 °F 29.83 in SSW 4.0 mph 5.0 mph 57% 0.00 in 633 W/m2
16:52 69.6 °F 53.2 °F 29.83 in SW 4.0 mph 4.0 mph 56% 0.00 in 615 W/m2
16:58 69.8 °F 54.4 °F 29.82 in SW 4.0 mph 4.0 mph 58% 0.00 in 100 W/m2
17:04 70.3 °F 54.8 °F 29.82 in SE 4.0 mph 5.0 mph 58% 0.00 in 155 W/m2
17:10 70.8 °F 52.8 °F 29.82 in SSE 3.0 mph 4.0 mph 53% 0.00 in 67 W/m2
17:16 71.2 °F 49.9 °F 29.82 in WSW 4.0 mph 4.0 mph 47% 0.00 in 60 W/m2
17:22 71.6 °F 51.4 °F 29.82 in South 4.0 mph 4.0 mph 49% 0.00 in 60 W/m2
17:28 71.8 °F 49.3 °F 29.81 in South 4.0 mph 8.0 mph 45% 0.00 in 60 W/m2
17:34 71.9 °F 49.4 °F 29.81 in SSW 4.0 mph 4.0 mph 45% 0.00 in 67 W/m2
17:42 72.3 °F 49.8 °F 29.81 in SW 3.0 mph 5.0 mph 45% 0.00 in 67 W/m2
17:48 72.2 °F 48.5 °F 29.81 in SW 5.0 mph 8.0 mph 43% 0.00 in 72 W/m2
17:54 72.2 °F 49.1 °F 29.81 in SSW 4.0 mph 7.0 mph 44% 0.00 in 97 W/m2
18:00 72.1 °F 48.4 °F 29.81 in SW 4.0 mph 4.0 mph 43% 0.00 in 97 W/m2
18:06 71.7 °F 48.0 °F 29.81 in South 5.0 mph 10.0 mph 43% 0.00 in 128 W/m2
18:12 71.7 °F 48.6 °F 29.81 in SSW 4.0 mph 5.0 mph 44% 0.00 in 141 W/m2
18:18 71.8 °F 49.3 °F 29.81 in SSW 3.0 mph 7.0 mph 45% 0.00 in 153 W/m2
18:24 71.8 °F 48.7 °F 29.81 in SW 3.0 mph 5.0 mph 44% 0.00 in 146 W/m2
18:30 72.1 °F 49.0 °F 29.81 in SSW 3.0 mph 7.0 mph 44% 0.00 in 149 W/m2
18:36 72.1 °F 48.4 °F 29.81 in SW 4.0 mph 7.0 mph 43% 0.00 in 128 W/m2
18:42 71.8 °F 49.9 °F 29.81 in SW 5.0 mph 5.0 mph 46% 0.00 in 127 W/m2
18:48 71.4 °F 49.5 °F 29.82 in South 5.0 mph 7.0 mph 46% 0.00 in 114 W/m2
18:54 70.8 °F 50.1 °F 29.82 in SE 5.0 mph 5.0 mph 48% 0.00 in 144 W/m2
19:00 70.6 °F 50.5 °F 29.82 in SW 5.0 mph 5.0 mph 49% 0.00 in 98 W/m2
19:06 70.7 °F 50.6 °F 29.82 in SSE 4.0 mph 5.0 mph 49% 0.00 in 114 W/m2
19:12 70.5 °F 50.4 °F 29.82 in South 3.0 mph 5.0 mph 49% 0.00 in 91 W/m2
19:18 70.1 °F 49.5 °F 29.82 in South 4.0 mph 5.0 mph 48% 0.00 in 76 W/m2
19:24 69.8 °F 49.8 °F 29.82 in WSW 4.0 mph 6.0 mph 49% 0.00 in 67 W/m2
19:30 69.6 °F 50.1 °F 29.82 in SSW 4.0 mph 5.0 mph 50% 0.00 in 63 W/m2
19:36 69.7 °F 50.2 °F 29.82 in WSW 4.0 mph 8.0 mph 50% 0.00 in 79 W/m2
19:42 69.9 °F 49.3 °F 29.81 in West 4.0 mph 4.0 mph 48% 0.00 in 37 W/m2
19:48 69.6 °F 49.0 °F 29.81 in SSW 3.0 mph 6.0 mph 48% 0.00 in 25 W/m2
19:54 69.4 °F 48.9 °F 29.81 in SSW 3.0 mph 8.0 mph 48% 0.00 in 21 W/m2
20:00 69.1 °F 49.1 °F 29.81 in SSW 4.0 mph 4.0 mph 49% 0.00 in 18 W/m2
20:06 68.7 °F 49.3 °F 29.81 in SW 3.0 mph 5.0 mph 50% 0.00 in 14 W/m2
20:12 68.4 °F 49.6 °F 29.81 in SW 3.0 mph 3.0 mph 51% 0.00 in 12 W/m2
20:18 67.8 °F 49.0 °F 29.81 in SSW 3.0 mph 6.0 mph 51% 0.00 in 9 W/m2
20:24 67.5 °F 49.3 °F 29.81 in SSW 2.0 mph 3.0 mph 52% 0.00 in 7 W/m2
20:30 67.0 °F 49.3 °F 29.81 in South 2.0 mph 3.0 mph 53% 0.00 in 5 W/m2
20:36 66.6 °F 49.4 °F 29.81 in SSW 1.0 mph 3.0 mph 54% 0.00 in 0 W/m2
20:42 66.2 °F 49.6 °F 29.81 in SSW 1.0 mph 2.0 mph 55% 0.00 in 0 W/m2
20:48 65.8 °F 49.7 °F 29.81 in South 1.0 mph 3.0 mph 56% 0.00 in 0 W/m2
20:54 65.6 °F 50.0 °F 29.81 in SW 2.0 mph 2.0 mph 57% 0.00 in 0 W/m2
21:00 65.2 °F 50.0 °F 29.81 in SSW 1.0 mph 1.0 mph 58% 0.00 in 0 W/m2
21:06 65.2 °F 50.0 °F 29.82 in SW 2.0 mph 3.0 mph 58% 0.00 in 0 W/m2
21:12 65.0 °F 50.3 °F 29.82 in SW 2.0 mph 2.0 mph 59% 0.00 in 0 W/m2
21:18 64.8 °F 50.6 °F 29.82 in SSW 2.0 mph 5.0 mph 60% 0.00 in 0 W/m2
21:24 64.5 °F 50.7 °F 29.82 in SSW 2.0 mph 2.0 mph 61% 0.00 in 0 W/m2
21:30 64.3 °F 50.6 °F 29.82 in SSW 2.0 mph 3.0 mph 61% 0.00 in 0 W/m2
21:36 64.2 °F 50.5 °F 29.82 in SSW 3.0 mph 6.0 mph 61% 0.00 in 0 W/m2
21:42 63.8 °F 51.0 °F 29.83 in South 2.0 mph 2.0 mph 63% 0.00 in 0 W/m2
21:48 63.6 °F 50.8 °F 29.83 in SW 2.0 mph 3.0 mph 63% 0.00 in 0 W/m2
21:54 63.6 °F 50.8 °F 29.83 in SE 2.0 mph 2.0 mph 63% 0.00 in 0 W/m2
22:00 63.4 °F 50.6 °F 29.84 in SSW 1.0 mph 2.0 mph 63% 0.00 in 0 W/m2
22:06 63.4 °F 50.6 °F 29.84 in SSW 2.0 mph 2.0 mph 63% 0.00 in 0 W/m2
22:12 63.2 °F 50.8 °F 29.84 in SSW 2.0 mph 3.0 mph 64% 0.00 in 0 W/m2
22:18 63.0 °F 50.2 °F 29.84 in SW 1.0 mph 3.0 mph 63% 0.00 in 0 W/m2
22:26 63.1 °F 50.3 °F 29.84 in SSW 2.0 mph 3.0 mph 63% 0.00 in 0 W/m2
22:32 63.3 °F 49.6 °F 29.84 in SSW 3.0 mph 3.0 mph 61% 0.00 in 0 W/m2
22:38 63.3 °F 49.6 °F 29.84 in WSW 3.0 mph 4.0 mph 61% 0.00 in 0 W/m2
22:44 63.0 °F 49.8 °F 29.84 in SW 2.0 mph 3.0 mph 62% 0.00 in 0 W/m2
22:50 62.7 °F 49.5 °F 29.84 in WSW 1.0 mph 2.0 mph 62% 0.00 in 0 W/m2
22:56 62.4 °F 49.6 °F 29.84 in SW 1.0 mph 2.0 mph 63% 0.00 in 0 W/m2
23:02 62.2 °F 49.9 °F 29.84 in SW 1.0 mph 5.0 mph 64% 0.00 in 0 W/m2
23:08 62.1 °F 49.8 °F 29.84 in SW 2.0 mph 5.0 mph 64% 0.00 in 0 W/m2
23:14 61.9 °F 50.0 °F 29.84 in South 1.0 mph 2.0 mph 65% 0.00 in 0 W/m2
23:20 61.5 °F 50.0 °F 29.84 in South 1.0 mph 1.0 mph 66% 0.00 in 0 W/m2
23:26 61.3 °F 49.8 °F 29.84 in SSW 1.0 mph 3.0 mph 66% 0.00 in 0 W/m2
23:32 61.2 °F 49.7 °F 29.84 in WSW 1.0 mph 1.0 mph 66% 0.00 in 0 W/m2
23:38 60.9 °F 49.9 °F 29.84 in SSW 1.0 mph 2.0 mph 67% 0.00 in 0 W/m2
23:46 60.7 °F 49.7 °F 29.84 in WSW 1.0 mph 2.0 mph 67% 0.00 in 0 W/m2
23:52 60.7 °F 49.7 °F 29.84 in WSW 1.0 mph 2.0 mph 67% 0.00 in 0 W/m2
23:58 60.5 °F 49.9 °F 29.84 in Calm   2.0 mph 68% 0.00 in 0 W/m2
Country Meadow, Clay, NY, USA
Compliments of Weather Underground - 2 mb